Time;durP1;ratioP1;P1;durP2;ratioP2;P2;SDS_P1;SDS_P2;PMS_P1;PMS_P2;Temp;Humidity;BMP_temperature;BMP_pressure;BME280_temperature;BME280_humidity;BME280_pressure;Samples;Min_cycle;Max_cycle;Signal;HPM_P1;HPM_P2
2023/12/12 00:01:46;;;;;;;12.73;6.88;;;;;;;6.78;96.71;97973.75;5063829;28;20039;-87
2023/12/12 00:04:11;;;;;;;8.98;6.65;;;;;;;6.98;95.84;97989.13;5067588;28;20031;-87
2023/12/12 00:06:37;;;;;;;10.63;7.25;;;;;;;6.88;96.19;97979.16;5055526;28;20030;-87
2023/12/12 00:09:02;;;;;;;11.25;6.97;;;;;;;7.20;95.14;97984.63;5038173;28;20115;-87
2023/12/12 00:11:28;;;;;;;9.20;6.53;;;;;;;6.80;95.67;97991.03;5076782;28;20437;-87
2023/12/12 00:13:53;;;;;;;11.02;6.82;;;;;;;6.63;95.56;97973.53;5056118;28;20051;-88
2023/12/12 00:16:18;;;;;;;11.02;7.18;;;;;;;6.75;95.77;97980.34;5054512;28;20395;-88
2023/12/12 00:18:44;;;;;;;12.80;7.03;;;;;;;7.01;95.56;97970.06;5060315;28;20023;-87
2023/12/12 00:21:09;;;;;;;9.75;6.20;;;;;;;6.73;96.23;97985.09;5090835;28;20085;-87
2023/12/12 00:23:34;;;;;;;9.93;6.90;;;;;;;6.72;96.42;97972.88;5057912;28;20047;-87
2023/12/12 00:26:00;;;;;;;9.95;6.95;;;;;;;7.10;96.33;97987.16;5044404;28;20055;-87
2023/12/12 00:28:28;;;;;;;8.52;6.43;;;;;;;7.12;95.47;97985.06;5060576;28;20499;-88
2023/12/12 00:30:53;;;;;;;8.15;5.78;;;;;;;6.98;95.76;97994.41;5073334;28;20074;-87
2023/12/12 00:33:19;;;;;;;10.25;6.80;;;;;;;6.95;95.77;97989.59;5046634;28;20055;-87
2023/12/12 00:35:44;;;;;;;12.10;6.82;;;;;;;6.88;95.35;97989.78;5099101;28;20023;-87
2023/12/12 00:38:09;;;;;;;8.45;5.82;;;;;;;6.95;95.83;98001.03;5059952;28;20044;-88
2023/12/12 00:40:35;;;;;;;10.27;6.35;;;;;;;6.87;95.27;97982.88;5063715;28;20027;-87
2023/12/12 00:43:00;;;;;;;8.68;6.10;;;;;;;6.83;96.15;98005.66;5061176;28;20089;-88
2023/12/12 00:45:25;;;;;;;10.40;5.90;;;;;;;6.97;96.15;98009.53;5061066;28;20028;-87
2023/12/12 00:47:51;;;;;;;10.95;6.68;;;;;;;7.03;95.79;98018.38;5057589;28;20024;-87
2023/12/12 00:50:16;;;;;;;8.75;5.95;;;;;;;7.03;95.78;98019.19;5075512;28;20032;-88
2023/12/12 00:52:42;;;;;;;13.25;6.90;;;;;;;6.87;95.13;98012.06;5048279;28;20055;-87
2023/12/12 00:55:07;;;;;;;10.00;6.90;;;;;;;6.91;96.51;98007.88;5058812;28;20032;-87
2023/12/12 00:57:33;;;;;;;12.27;6.25;;;;;;;6.97;96.14;98009.53;5070340;28;20027;-87
2023/12/12 00:59:58;;;;;;;12.55;7.63;;;;;;;6.94;96.20;98004.72;5059698;28;20510;-87
2023/12/12 01:02:23;;;;;;;12.73;7.68;;;;;;;7.04;95.68;98014.66;5040434;28;20028;-87
2023/12/12 01:04:49;;;;;;;10.77;5.57;;;;;;;6.94;95.65;98017.19;5078401;28;20032;-88
2023/12/12 01:07:14;;;;;;;11.50;6.25;;;;;;;7.02;95.29;98008.78;5058942;28;20031;-88
2023/12/12 01:09:40;;;;;;;9.02;6.05;;;;;;;6.94;96.68;98020.66;5044115;28;20020;-87
2023/12/12 01:12:05;;;;;;;8.18;5.07;;;;;;;6.76;95.67;98007.66;5062737;28;20040;-87
2023/12/12 01:14:31;;;;;;;11.30;6.22;;;;;;;6.95;95.82;98001.03;5061037;28;20418;-88
2023/12/12 01:16:57;;;;;;;8.05;5.20;;;;;;;6.71;95.44;97967.81;5057665;28;20029;-88
2023/12/12 01:19:22;;;;;;;8.38;5.50;;;;;;;6.82;95.50;98010.13;5076550;28;20025;-88
2023/12/12 01:21:48;;;;;;;12.77;5.88;;;;;;;6.93;95.38;97981.09;5037090;28;20052;-87
2023/12/12 01:24:13;;;;;;;12.52;5.78;;;;;;;7.10;94.77;98016.34;5060058;28;20147;-88
2023/12/12 01:26:38;;;;;;;6.35;4.35;;;;;;;6.73;94.93;98005.50;5061124;28;20030;-87
2023/12/12 01:29:04;;;;;;;5.78;4.72;;;;;;;7.02;95.35;97991.03;5059976;28;20056;-87
2023/12/12 01:31:29;;;;;;;5.78;4.45;;;;;;;6.91;94.47;98001.75;5055954;28;20043;-87
2023/12/12 01:33:54;;;;;;;10.45;5.28;;;;;;;7.11;94.84;98013.44;5051630;28;20024;-88
2023/12/12 01:36:20;;;;;;;10.75;5.95;;;;;;;6.64;95.30;98002.44;5042107;28;20030;-87
2023/12/12 01:38:45;;;;;;;7.30;4.85;;;;;;;6.78;95.70;97968.44;5074612;28;20020;-87
2023/12/12 01:41:11;;;;;;;7.60;5.18;;;;;;;6.80;95.64;98003.47;5095295;28;20081;-87
2023/12/12 01:43:36;;;;;;;7.95;4.90;;;;;;;6.68;96.60;98000.13;5078511;28;20076;-87
2023/12/12 01:46:04;;;;;;;9.90;5.22;;;;;;;6.97;95.50;98003.44;5074301;28;20039;-87
2023/12/12 01:48:31;;;;;;;9.95;5.28;;;;;;;6.77;95.42;98001.31;5067451;28;20035;-87
2023/12/12 01:50:57;;;;;;;6.07;4.50;;;;;;;6.74;96.35;98004.47;5078670;28;20418;-87
2023/12/12 01:53:43;;;;;;;12.85;5.47;;;;;;;6.72;96.11;98003.91;5096018;28;20057;-87
2023/12/12 01:56:09;;;;;;;9.68;4.60;;;;;;;6.44;96.45;97957.13;5052729;28;20029;-87
2023/12/12 01:58:37;;;;;;;9.15;4.43;;;;;;;6.97;96.43;98006.88;5076632;28;20488;-87
2023/12/12 02:01:03;;;;;;;5.28;4.18;;;;;;;6.99;95.57;97996.81;5072565;28;20024;-87
2023/12/12 02:03:30;;;;;;;5.57;4.72;;;;;;;6.74;96.08;98009.75;5058722;28;20031;-87
2023/12/12 02:05:59;;;;;;;5.47;4.65;;;;;;;6.87;96.50;98009.41;5057685;28;20024;-87
2023/12/12 02:08:25;;;;;;;10.20;4.70;;;;;;;6.82;95.89;98010.13;5084034;28;20028;-87
2023/12/12 02:10:51;;;;;;;5.43;4.00;;;;;;;6.65;95.52;97990.00;5078687;28;21821;-87
2023/12/12 02:13:16;;;;;;;6.80;4.63;;;;;;;6.91;96.18;97999.09;5093997;28;20027;-87
2023/12/12 02:15:42;;;;;;;4.88;4.13;;;;;;;6.81;95.99;97994.47;5046590;28;20499;-87
2023/12/12 02:18:07;;;;;;;8.65;4.97;;;;;;;6.68;96.07;97998.25;5041025;28;20105;-87
2023/12/12 02:20:32;;;;;;;9.88;5.70;;;;;;;6.56;96.43;97989.63;5043602;28;20028;-87
2023/12/12 02:22:58;;;;;;;7.50;5.22;;;;;;;6.82;95.90;98001.38;5061101;28;20377;-87
2023/12/12 02:25:23;;;;;;;9.57;5.40;;;;;;;6.68;95.62;97990.31;5065725;28;20640;-87
2023/12/12 02:27:50;;;;;;;9.18;4.82;;;;;;;6.63;96.69;97978.84;5046775;28;20032;-87
2023/12/12 02:30:17;;;;;;;7.65;4.57;;;;;;;7.01;95.35;97989.41;5074669;28;20028;-87
2023/12/12 02:32:42;;;;;;;8.45;5.10;;;;;;;6.88;95.19;97995.09;5061161;28;20027;-87
2023/12/12 02:35:08;;;;;;;12.13;5.30;;;;;;;6.62;95.37;97993.94;5040404;28;20034;-87
2023/12/12 02:37:33;;;;;;;8.40;4.82;;;;;;;6.43;96.07;97999.75;5081964;28;20032;-87
2023/12/12 02:39:58;;;;;;;9.45;4.75;;;;;;;6.88;95.89;97951.88;5074251;28;20032;-87
2023/12/12 02:42:24;;;;;;;4.40;3.90;;;;;;;7.11;95.75;97988.75;5070391;28;20059;-87
2023/12/12 02:44:49;;;;;;;6.50;3.97;;;;;;;7.10;94.80;97997.78;5090187;28;20024;-87
2023/12/12 02:47:14;;;;;;;5.97;4.13;;;;;;;7.02;94.99;97983.06;5073293;28;20043;-87
2023/12/12 02:49:40;;;;;;;7.97;4.65;;;;;;;6.99;95.11;97988.88;5041651;28;20020;-87
2023/12/12 02:52:05;;;;;;;11.63;5.75;;;;;;;6.85;94.84;97989.47;5057542;28;20039;-87
2023/12/12 02:54:30;;;;;;;7.43;4.32;;;;;;;7.14;95.04;97989.06;5060722;28;20032;-87
2023/12/12 02:56:56;;;;;;;6.78;3.85;;;;;;;7.15;95.24;97990.66;5042742;28;20380;-87
2023/12/12 02:59:21;;;;;;;5.50;4.32;;;;;;;7.17;95.17;97991.22;5059883;28;20177;-87
2023/12/12 03:01:48;;;;;;;9.57;5.45;;;;;;;6.98;94.84;97997.06;5074178;28;20019;-87
2023/12/12 03:04:13;;;;;;;12.75;6.28;;;;;;;6.62;95.71;97979.88;5085218;28;20019;-87
2023/12/12 03:06:38;;;;;;;7.63;5.05;;;;;;;6.86;96.23;97988.44;5045901;28;20365;-87
2023/12/12 03:09:03;;;;;;;6.05;4.45;;;;;;;7.01;95.42;97993.94;5070110;28;20181;-87
2023/12/12 03:11:29;;;;;;;13.07;7.70;;;;;;;6.37;95.70;97995.44;5055244;28;20039;-87
2023/12/12 03:13:54;;;;;;;8.45;5.07;;;;;;;6.87;97.12;97995.34;5092975;28;20024;-87
2023/12/12 03:16:20;;;;;;;9.57;5.18;;;;;;;7.17;95.88;97987.75;5068911;28;20037;-87
2023/12/12 03:18:45;;;;;;;12.05;6.25;;;;;;;6.53;94.59;97960.94;5041312;28;20055;-88
2023/12/12 03:21:10;;;;;;;13.65;6.07;;;;;;;6.70;95.47;97976.81;5054648;28;20024;-88
2023/12/12 03:23:36;;;;;;;10.40;5.40;;;;;;;6.91;95.13;97986.66;5051495;28;20051;-88
2023/12/12 03:26:08;;;;;;;7.93;4.93;;;;;;;6.97;96.44;97972.41;5042728;28;20085;-87
2023/12/12 03:28:36;;;;;;;7.13;4.95;;;;;;;7.13;94.98;97978.69;5061788;28;20048;-88
2023/12/12 03:31:03;;;;;;;7.90;5.05;;;;;;;7.06;95.44;97957.66;5064111;28;20028;-87
2023/12/12 03:33:28;;;;;;;10.18;7.38;;;;;;;6.90;94.19;97965.69;5077372;28;20015;-87
2023/12/12 03:35:53;;;;;;;6.50;4.93;;;;;;;7.12;94.78;97964.63;5055769;28;20765;-87
2023/12/12 03:38:19;;;;;;;6.05;4.65;;;;;;;7.07;94.89;97964.56;5046463;28;20365;-87
2023/12/12 03:40:44;;;;;;;8.27;5.32;;;;;;;7.15;95.29;97964.13;5040782;28;20501;-87
2023/12/12 03:43:09;;;;;;;6.05;4.28;;;;;;;7.18;94.37;97974.25;5054402;28;20484;-87
2023/12/12 03:45:35;;;;;;;5.82;4.60;;;;;;;7.23;94.13;97971.66;5041241;28;20051;-87
2023/12/12 03:48:00;;;;;;;9.93;5.97;;;;;;;7.40;93.51;97972.38;5037594;28;20032;-87
2023/12/12 03:50:26;;;;;;;4.88;4.38;;;;;;;7.28;94.00;97963.75;5055386;28;20032;-87
2023/12/12 03:52:51;;;;;;;6.43;5.25;;;;;;;7.32;94.32;97977.31;5091618;28;20019;-87
2023/12/12 03:55:16;;;;;;;8.02;5.07;;;;;;;7.15;93.98;97974.75;5037915;28;20554;-87
2023/12/12 03:57:42;;;;;;;14.07;5.80;;;;;;;6.99;94.30;97975.59;5076066;28;20032;-87
2023/12/12 04:00:08;;;;;;;10.68;4.90;;;;;;;7.09;94.30;97970.44;5040967;28;20028;-87
2023/12/12 04:02:33;;;;;;;8.60;5.03;;;;;;;7.04;94.66;97948.31;5068158;28;20036;-87
2023/12/12 04:04:58;;;;;;;7.07;5.15;;;;;;;7.24;94.41;97961.84;5053244;28;20727;-87
2023/12/12 04:07:24;;;;;;;6.93;5.38;;;;;;;7.37;93.53;97964.09;5059523;28;20492;-87
2023/12/12 04:09:49;;;;;;;11.07;5.70;;;;;;;6.88;93.61;97960.59;5060791;28;20040;-87
2023/12/12 04:12:14;;;;;;;7.28;5.57;;;;;;;6.79;94.37;97970.06;5030150;28;20486;-87
2023/12/12 04:14:40;;;;;;;5.80;4.70;;;;;;;6.88;94.51;97983.69;5037964;28;20083;-87
2023/12/12 04:17:06;;;;;;;6.82;4.32;;;;;;;6.98;95.42;97973.19;5055468;28;20051;-87
2023/12/12 04:19:31;;;;;;;7.07;5.00;;;;;;;6.71;94.31;97957.19;5048947;28;20047;-87
2023/12/12 04:21:56;;;;;;;8.57;4.72;;;;;;;6.68;95.05;97968.31;5044772;28;20092;-87
2023/12/12 04:24:22;;;;;;;8.70;6.50;;;;;;;6.56;94.51;97979.03;5076389;28;20035;-87
2023/12/12 04:26:47;;;;;;;7.60;5.32;;;;;;;6.95;95.13;97977.16;5040433;28;20394;-88
2023/12/12 04:29:12;;;;;;;9.15;4.95;;;;;;;6.78;95.28;97961.28;5065448;28;20396;-87
2023/12/12 04:31:38;;;;;;;5.93;4.68;;;;;;;7.16;94.34;97978.22;5051461;28;20029;-87
2023/12/12 04:34:03;;;;;;;7.57;5.78;;;;;;;6.64;93.95;97943.34;5039682;28;20069;-87
2023/12/12 04:36:28;;;;;;;6.93;4.88;;;;;;;7.06;94.48;97980.72;5057405;28;20375;-87
2023/12/12 04:38:54;;;;;;;6.90;5.57;;;;;;;7.07;93.48;97972.53;5056748;28;20066;-87
2023/12/12 04:41:19;;;;;;;12.82;6.43;;;;;;;7.00;93.29;97971.91;5084905;28;20541;-87
2023/12/12 04:43:44;;;;;;;9.68;5.55;;;;;;;7.02;93.65;97963.69;5071898;28;20111;-87
2023/12/12 04:46:18;;;;;;;7.78;4.80;;;;;;;6.93;94.44;97976.59;5036347;28;20028;-87
2023/12/12 04:48:43;;;;;;;8.43;5.55;;;;;;;6.80;93.71;97961.03;5068066;28;20463;-87
2023/12/12 04:51:08;;;;;;;7.97;5.32;;;;;;;6.93;93.37;97973.94;5035335;28;20032;-87
2023/12/12 04:53:34;;;;;;;6.28;4.72;;;;;;;7.08;93.58;97971.47;5034378;28;20032;-87
2023/12/12 04:55:59;;;;;;;8.80;5.80;;;;;;;7.15;92.92;97982.72;5055061;28;20056;-87
2023/12/12 04:58:25;;;;;;;7.13;5.90;;;;;;;6.85;93.97;97971.72;5052188;28;20028;-87
2023/12/12 05:00:50;;;;;;;5.28;4.78;;;;;;;6.98;93.56;97968.72;5038734;28;20061;-87
2023/12/12 05:03:16;;;;;;;8.00;4.88;;;;;;;7.10;93.10;97979.97;5044563;28;20435;-87
2023/12/12 05:05:41;;;;;;;5.85;4.82;;;;;;;6.93;93.56;97971.28;5047951;28;20041;-87
2023/12/12 05:08:07;;;;;;;9.27;5.07;;;;;;;6.89;93.64;97980.78;5039527;28;20051;-87
2023/12/12 05:10:32;;;;;;;7.10;4.47;;;;;;;6.82;94.34;97974.84;5053749;28;20127;-87
2023/12/12 05:12:57;;;;;;;5.82;4.15;;;;;;;6.84;94.42;97964.03;5041399;28;20097;-87
2023/12/12 05:15:23;;;;;;;10.07;5.22;;;;;;;6.78;94.32;97965.78;5061668;28;20039;-86
2023/12/12 05:17:48;;;;;;;8.20;4.93;;;;;;;6.75;94.98;97975.03;5040305;28;20031;-86
2023/12/12 05:20:13;;;;;;;6.90;4.15;;;;;;;6.68;94.73;97965.66;5055803;28;20034;-87
2023/12/12 05:22:39;;;;;;;7.00;4.35;;;;;;;6.79;95.10;97975.38;5043996;28;20081;-87
2023/12/12 05:25:05;;;;;;;6.10;4.25;;;;;;;6.69;94.89;97983.16;5057484;28;20151;-88
2023/12/12 05:27:31;;;;;;;6.88;4.20;;;;;;;6.66;94.81;97987.09;5053007;28;20475;-87
2023/12/12 05:29:56;;;;;;;10.45;3.92;;;;;;;6.62;94.82;97972.72;5076050;28;20035;-87
2023/12/12 05:32:22;;;;;;;6.90;4.18;;;;;;;6.58;95.60;97976.13;5073252;28;20504;-87
2023/12/12 05:34:47;;;;;;;11.48;4.15;;;;;;;6.47;96.08;97977.81;5054835;28;20518;-87
2023/12/12 05:37:12;;;;;;;5.90;4.57;;;;;;;6.52;95.43;97971.78;5053917;28;20400;-87
2023/12/12 05:39:38;;;;;;;6.13;4.45;;;;;;;6.46;95.98;97962.16;5037814;28;20739;-87
2023/12/12 05:42:03;;;;;;;7.80;4.65;;;;;;;6.57;95.82;97974.53;5038003;28;20070;-87
2023/12/12 05:44:28;;;;;;;10.55;4.63;;;;;;;6.67;94.38;97966.69;5078034;28;20497;-87
2023/12/12 05:46:54;;;;;;;7.47;4.65;;;;;;;6.77;95.26;97972.16;5047560;28;20035;-87
2023/12/12 05:49:21;;;;;;;8.73;4.78;;;;;;;6.73;94.79;97971.81;5041416;28;20118;-87
2023/12/12 05:51:47;;;;;;;8.48;4.78;;;;;;;6.60;94.99;97971.38;5057052;28;20140;-84
2023/12/12 05:54:12;;;;;;;11.10;5.63;;;;;;;6.39;94.51;97974.78;5066623;28;20500;-84
2023/12/12 05:56:38;;;;;;;8.80;5.00;;;;;;;6.40;95.31;97971.09;5042861;28;20028;-85
2023/12/12 05:59:05;;;;;;;12.45;5.32;;;;;;;6.36;94.63;97975.25;5073748;28;20032;-86
2023/12/12 06:01:30;;;;;;;6.32;4.72;;;;;;;6.28;95.18;97959.78;5066841;28;20081;-86
2023/12/12 06:03:55;;;;;;;6.75;4.43;;;;;;;6.28;95.65;97963.22;5052662;28;20476;-86
2023/12/12 06:06:21;;;;;;;10.95;5.13;;;;;;;6.42;94.76;97974.31;5052461;28;20715;-85
2023/12/12 06:08:46;;;;;;;8.80;4.93;;;;;;;6.23;95.26;97968.44;5057407;28;20099;-86
2023/12/12 06:11:12;;;;;;;6.38;4.70;;;;;;;6.28;95.61;97970.38;5078150;28;20032;-86
2023/12/12 06:13:37;;;;;;;9.43;5.40;;;;;;;6.24;96.26;97961.31;5050847;28;20040;-86
2023/12/12 06:16:03;;;;;;;17.45;5.32;;;;;;;6.25;95.72;97968.19;5033807;28;20434;-86
2023/12/12 06:18:28;;;;;;;8.38;4.78;;;;;;;5.90;95.97;97932.19;5088943;28;20484;-86
2023/12/12 06:20:53;;;;;;;7.38;4.80;;;;;;;6.17;95.80;97968.63;5060913;28;20039;-86
2023/12/12 06:23:19;;;;;;;14.30;5.35;;;;;;;6.09;95.74;97975.13;5086370;28;20040;-86
2023/12/12 06:25:44;;;;;;;13.38;5.28;;;;;;;6.10;96.31;97971.41;5062142;28;20400;-85
2023/12/12 06:28:10;;;;;;;8.20;4.75;;;;;;;6.18;95.19;97970.22;5092531;28;20028;-86
2023/12/12 06:30:35;;;;;;;10.10;4.65;;;;;;;5.89;95.56;97949.13;5077461;28;20364;-86
2023/12/12 06:33:00;;;;;;;8.77;5.20;;;;;;;6.07;95.69;97979.88;5092237;28;20055;-86
2023/12/12 06:35:26;;;;;;;9.88;4.90;;;;;;;5.97;95.79;97959.31;5056965;28;20091;-85
2023/12/12 06:37:51;;;;;;;8.30;5.35;;;;;;;6.07;96.43;97970.06;5074279;28;20036;-86
2023/12/12 06:40:16;;;;;;;12.50;5.70;;;;;;;5.98;95.68;97960.91;5071464;28;20313;-86
2023/12/12 06:42:43;;;;;;;8.48;5.38;;;;;;;5.94;95.82;97978.31;5058607;28;20542;-86
2023/12/12 06:45:13;;;;;;;12.00;5.97;;;;;;;6.01;95.86;97973.66;5090391;28;20027;-86
2023/12/12 06:47:38;;;;;;;11.80;6.60;;;;;;;5.93;96.33;97973.28;5089076;28;20028;-85
2023/12/12 06:50:04;;;;;;;12.55;5.53;;;;;;;5.70;96.19;97936.31;5075558;28;20030;-86
2023/12/12 06:52:30;;;;;;;12.35;6.03;;;;;;;5.91;95.77;97962.94;5088928;28;20028;-86
2023/12/12 06:54:55;;;;;;;11.38;5.57;;;;;;;5.93;95.97;97987.31;5052862;28;20029;-86
2023/12/12 06:57:21;;;;;;;18.17;6.43;;;;;;;5.83;95.94;97962.50;5037032;28;20426;-86
2023/12/12 06:59:46;;;;;;;10.32;7.30;;;;;;;5.90;95.74;97977.19;5057571;28;20039;-86
2023/12/12 07:02:12;;;;;;;12.95;5.90;;;;;;;5.95;95.72;97968.53;5061024;28;20066;-86
2023/12/12 07:04:38;;;;;;;11.98;5.88;;;;;;;5.70;95.75;97938.97;5052991;28;20052;-86
2023/12/12 07:07:03;;;;;;;15.82;6.00;;;;;;;5.86;96.10;97965.47;5064741;28;20039;-86
2023/12/12 07:09:29;;;;;;;9.70;6.10;;;;;;;5.94;95.44;97972.25;5077398;28;20024;-86
2023/12/12 07:11:54;;;;;;;13.13;5.95;;;;;;;5.95;94.96;97976.47;5072584;28;20028;-86
2023/12/12 07:14:20;;;;;;;15.23;5.57;;;;;;;5.87;95.33;97971.59;5060898;28;20039;-86
2023/12/12 07:16:45;;;;;;;11.50;5.82;;;;;;;5.89;95.82;97978.25;5086071;28;20044;-86
2023/12/12 07:19:10;;;;;;;12.55;5.82;;;;;;;5.68;96.18;97962.22;5043232;28;20278;-86
2023/12/12 07:21:41;;;;;;;13.93;7.82;;;;;;;5.51;95.93;97942.84;5047718;28;20039;-86
2023/12/12 07:24:07;;;;;;;15.52;5.97;;;;;;;5.88;96.27;97973.19;5090835;28;20028;-86
2023/12/12 07:26:33;;;;;;;13.95;6.70;;;;;;;5.82;96.30;97976.75;5095846;28;20039;-87
2023/12/12 07:28:58;;;;;;;12.98;5.97;;;;;;;5.81;95.64;97965.34;5061605;28;20395;-86
2023/12/12 07:31:24;;;;;;;11.35;6.25;;;;;;;5.88;95.51;97975.81;5054232;28;20036;-86
2023/12/12 07:33:50;;;;;;;15.55;5.90;;;;;;;5.85;95.66;97971.81;5038585;28;20055;-86
2023/12/12 07:36:15;;;;;;;13.88;6.47;;;;;;;5.77;95.47;97976.66;5088748;28;20066;-86
2023/12/12 07:38:41;;;;;;;14.25;5.95;;;;;;;5.80;96.14;97982.31;5064504;28;20055;-86
2023/12/12 07:41:07;;;;;;;21.20;5.93;;;;;;;5.80;96.32;97990.25;5052316;28;20040;-86
2023/12/12 07:43:32;;;;;;;15.63;6.40;;;;;;;5.81;95.74;97986.53;5060823;28;20031;-87
2023/12/12 07:45:58;;;;;;;16.90;6.63;;;;;;;5.72;96.43;97980.03;5058407;28;20063;-86
2023/12/12 07:48:23;;;;;;;12.50;6.32;;;;;;;5.75;96.52;97981.41;5057355;28;20502;-86
2023/12/12 07:50:49;;;;;;;16.48;5.88;;;;;;;5.83;96.50;97983.66;5057385;28;20035;-86
2023/12/12 07:53:14;;;;;;;16.70;6.40;;;;;;;5.89;95.96;97991.50;5064666;28;20507;-85
2023/12/12 07:55:40;;;;;;;24.25;8.25;;;;;;;5.78;95.83;97986.22;5074180;28;20115;-86
2023/12/12 07:58:05;;;;;;;20.10;6.20;;;;;;;5.91;95.79;97984.09;5040962;28;20028;-86
2023/12/12 08:00:30;;;;;;;14.43;7.65;;;;;;;5.76;95.64;97951.25;5056198;28;20028;-86
2023/12/12 08:02:56;;;;;;;14.90;6.85;;;;;;;5.93;95.68;97986.50;5074280;28;20110;-86
2023/12/12 08:05:21;;;;;;;17.60;6.93;;;;;;;5.83;95.16;97971.22;5073124;28;20471;-86
2023/12/12 08:07:48;;;;;;;17.02;6.07;;;;;;;5.92;94.95;97980.41;5065949;28;20024;-86
2023/12/12 08:10:14;;;;;;;19.10;7.35;;;;;;;5.84;95.70;97980.81;5057754;28;20039;-86
2023/12/12 08:12:39;;;;;;;18.98;7.10;;;;;;;5.97;96.16;97985.78;5100737;28;20024;-86
2023/12/12 08:15:05;;;;;;;21.88;6.60;;;;;;;5.93;95.78;97984.66;5038021;28;20046;-86
2023/12/12 08:17:30;;;;;;;25.05;6.10;;;;;;;6.00;94.78;97982.69;5042871;28;20036;-86
2023/12/12 08:19:55;;;;;;;34.95;6.63;;;;;;;5.81;95.14;97986.53;5065404;28;20104;-86
2023/12/12 08:22:21;;;;;;;17.10;6.13;;;;;;;5.96;95.44;97981.53;5040241;28;20039;-86
2023/12/12 08:24:50;;;;;;;23.08;5.55;;;;;;;5.80;95.60;97986.78;5040152;28;20028;-87
2023/12/12 08:27:16;;;;;;;13.55;5.15;;;;;;;5.91;96.53;97989.41;5057607;28;20487;-86
2023/12/12 08:29:41;;;;;;;14.07;6.20;;;;;;;5.77;96.79;97974.00;5040715;28;20162;-86
2023/12/12 08:32:06;;;;;;;15.32;5.25;;;;;;;6.04;95.65;97980.34;5040521;28;20105;-86
2023/12/12 08:34:33;;;;;;;17.02;6.38;;;;;;;5.89;96.24;97988.03;5057058;28;20039;-86
2023/12/12 08:36:59;;;;;;;18.73;6.32;;;;;;;6.00;95.68;97973.91;5057499;28;20031;-86
2023/12/12 08:39:25;;;;;;;12.60;5.35;;;;;;;6.15;95.51;97989.25;5060939;28;20073;-86
2023/12/12 08:41:50;;;;;;;19.88;6.65;;;;;;;5.97;95.53;97975.19;5059376;28;20040;-86
2023/12/12 08:44:15;;;;;;;10.18;5.47;;;;;;;6.05;96.01;97981.94;5042343;28;20113;-85
2023/12/12 08:46:43;;;;;;;19.40;5.97;;;;;;;5.97;95.84;97984.97;5044426;28;20019;-86
2023/12/12 08:49:09;;;;;;;15.70;6.07;;;;;;;5.97;96.43;97983.16;5078247;28;20092;-86
2023/12/12 08:51:34;;;;;;;12.27;5.70;;;;;;;6.01;97.07;97997.50;5070660;28;20032;-86
2023/12/12 08:54:02;;;;;;;19.77;6.28;;;;;;;6.03;96.61;98003.38;5050391;28;20085;-86
2023/12/12 08:56:27;;;;;;;22.35;5.43;;;;;;;6.14;95.75;97988.44;5080118;28;20124;-86
2023/12/12 08:58:54;;;;;;;14.32;5.18;;;;;;;6.07;95.17;97984.34;5068823;28;20165;-86
2023/12/12 09:01:19;;;;;;;13.77;5.57;;;;;;;5.98;96.02;97990.03;5048839;28;20084;-86
2023/12/12 09:03:45;;;;;;;19.77;6.50;;;;;;;5.88;95.60;97979.28;5044092;28;20110;-86
2023/12/12 09:06:11;;;;;;;21.77;6.53;;;;;;;6.04;95.37;97986.44;5090206;28;20078;-86
2023/12/12 09:08:41;;;;;;;22.48;5.93;;;;;;;5.77;94.97;97950.19;5083340;28;20430;-86
2023/12/12 09:11:08;;;;;;;11.77;4.45;;;;;;;5.85;95.19;97969.16;5060819;28;20039;-86
2023/12/12 09:13:33;;;;;;;17.63;5.40;;;;;;;5.88;95.23;97984.56;5060996;28;20123;-86
2023/12/12 09:15:59;;;;;;;14.77;6.22;;;;;;;5.69;96.62;97983.16;5060788;28;20742;-85
2023/12/12 09:18:25;;;;;;;14.18;5.13;;;;;;;5.91;96.19;97986.75;5044323;28;20032;-86
2023/12/12 09:20:50;;;;;;;27.50;6.32;;;;;;;5.96;95.59;97976.22;5076805;28;20039;-86
2023/12/12 09:23:16;;;;;;;22.05;7.35;;;;;;;5.82;95.57;97980.22;5066494;28;20035;-86
2023/12/12 09:25:42;;;;;;;17.15;5.18;;;;;;;5.76;95.62;97975.88;5084417;28;20020;-86
2023/12/12 09:28:07;;;;;;;18.70;5.75;;;;;;;5.79;96.98;97962.16;5069592;28;20122;-86
2023/12/12 09:30:33;;;;;;;23.60;7.97;;;;;;;5.73;96.03;97965.75;5060391;28;20058;-86
2023/12/12 09:32:58;;;;;;;20.83;7.35;;;;;;;5.24;96.74;97927.56;5056692;28;20058;-86
2023/12/12 09:35:24;;;;;;;19.55;6.20;;;;;;;6.04;96.37;97953.84;5066707;28;20068;-86
2023/12/12 09:37:50;;;;;;;16.75;6.90;;;;;;;6.12;95.45;97964.03;5075727;28;20369;-86
2023/12/12 09:40:15;;;;;;;17.55;8.88;;;;;;;5.79;98.07;97961.34;5076561;28;20031;-86
2023/12/12 09:42:41;;;;;;;22.80;8.40;;;;;;;5.64;98.48;97951.31;5076565;28;20032;-86
2023/12/12 09:45:13;;;;;;;17.45;7.72;;;;;;;5.53;99.65;97960.09;5043780;28;20035;-85
2023/12/12 09:47:42;;;;;;;42.30;8.43;;;;;;;5.72;99.06;97944.81;5077271;28;20097;-86
2023/12/12 09:50:09;;;;;;;23.15;7.05;;;;;;;5.74;100.00;97934.81;5076924;28;20027;-86
2023/12/12 09:52:36;;;;;;;32.22;8.82;;;;;;;5.78;100.00;97926.13;5093349;28;20028;-86
2023/12/12 09:55:03;;;;;;;14.48;5.22;;;;;;;5.94;99.82;97921.91;5075785;28;20048;-86
2023/12/12 09:57:29;;;;;;;20.02;7.65;;;;;;;5.66;100.00;97909.50;5076598;28;20126;-86
2023/12/12 09:59:55;;;;;;;24.05;8.23;;;;;;;5.57;100.00;97876.53;5056186;28;20512;-86
2023/12/12 10:02:26;;;;;;;15.40;5.40;;;;;;;6.18;98.68;97918.03;5057885;28;20092;-86
2023/12/12 10:04:52;;;;;;;22.52;7.57;;;;;;;6.21;97.37;97911.44;5059430;28;20031;-86
2023/12/12 10:07:19;;;;;;;13.15;5.35;;;;;;;6.25;96.49;97896.66;5075017;28;20038;-86
2023/12/12 10:09:46;;;;;;;15.45;5.28;;;;;;;6.35;95.90;97899.47;5058532;28;20106;-86
2023/12/12 10:12:11;;;;;;;23.58;6.32;;;;;;;6.48;95.44;97905.22;5080778;28;20024;-86
2023/12/12 10:14:41;;;;;;;13.95;5.80;;;;;;;6.39;95.13;97905.88;5042757;28;20441;-86
2023/12/12 10:17:10;;;;;;;11.43;5.22;;;;;;;6.28;96.73;97896.19;5076160;28;20081;-85
2023/12/12 10:19:37;;;;;;;12.55;5.30;;;;;;;6.37;96.07;97905.31;5050701;28;20488;-86
2023/12/12 10:22:09;;;;;;;27.95;5.53;;;;;;;6.34;96.44;97903.16;5060018;28;20028;-86
2023/12/12 10:24:35;;;;;;;15.18;5.32;;;;;;;6.26;96.65;97887.69;5062338;28;20042;-86
2023/12/12 10:27:03;;;;;;;18.25;5.57;;;;;;;6.24;97.30;97889.78;5059507;28;20118;-86
2023/12/12 10:29:28;;;;;;;22.15;6.43;;;;;;;6.18;99.65;97902.13;5087051;28;20016;-86
2023/12/12 10:31:54;;;;;;;15.02;4.43;;;;;;;6.43;100.00;97896.38;5078109;28;20035;-86
2023/12/12 10:34:23;;;;;;;18.55;5.50;;;;;;;6.31;99.47;97887.75;5075178;28;20123;-85
2023/12/12 10:36:48;;;;;;;13.45;5.30;;;;;;;6.42;96.56;97874.38;5065123;28;20039;-86
2023/12/12 10:39:15;;;;;;;17.98;6.30;;;;;;;6.55;96.86;97870.59;5089075;28;20476;-85
2023/12/12 10:41:50;;;;;;;17.98;5.25;;;;;;;6.39;97.35;97882.03;5067592;28;20111;-85
2023/12/12 10:44:18;;;;;;;15.32;5.25;;;;;;;6.68;95.73;97859.59;5078343;28;20024;-85
2023/12/12 10:46:43;;;;;;;29.85;6.32;;;;;;;6.58;95.56;97862.13;5050581;28;20040;-85
2023/12/12 10:49:10;;;;;;;26.58;6.28;;;;;;;6.44;96.44;97856.41;5059697;28;20391;-85
2023/12/12 10:51:36;;;;;;;14.77;4.47;;;;;;;6.58;96.62;97854.16;5074129;28;20035;-85
2023/12/12 10:54:05;;;;;;;14.95;4.97;;;;;;;6.54;96.21;97850.41;5056512;28;20039;-85
2023/12/12 10:56:35;;;;;;;19.95;4.75;;;;;;;6.55;96.12;97844.06;5074158;28;20093;-86
2023/12/12 10:59:02;;;;;;;16.60;5.38;;;;;;;6.57;96.92;97840.13;5059097;28;20024;-85
2023/12/12 11:01:28;;;;;;;16.67;6.03;;;;;;;6.71;95.97;97829.94;5077506;28;20119;-85
2023/12/12 11:03:57;;;;;;;22.02;5.32;;;;;;;6.63;96.03;97825.06;5075035;28;20040;-85
2023/12/12 11:06:23;;;;;;;15.93;6.05;;;;;;;6.64;96.01;97824.03;5073192;28;20053;-85
2023/12/12 11:08:49;;;;;;;22.90;7.40;;;;;;;6.58;96.19;97814.41;5061954;28;20131;-86
2023/12/12 11:11:18;;;;;;;19.85;5.63;;;;;;;6.75;96.03;97823.88;5056480;28;20465;-85
2023/12/12 11:13:45;;;;;;;23.10;5.45;;;;;;;6.73;96.15;97825.19;5074299;28;20085;-85
2023/12/12 11:16:11;;;;;;;25.40;6.60;;;;;;;6.58;96.57;97811.75;5092719;28;20024;-85
2023/12/12 11:18:37;;;;;;;23.50;5.05;;;;;;;6.68;96.20;97790.66;5063140;28;20020;-86
2023/12/12 11:21:04;;;;;;;24.65;6.15;;;;;;;6.68;95.80;97794.09;5080163;28;20379;-86
2023/12/12 11:23:53;;;;;;;22.60;5.65;;;;;;;6.96;95.11;97801.03;5051873;28;20045;-86
2023/12/12 11:26:21;;;;;;;21.95;5.57;;;;;;;6.73;94.94;97791.50;5069988;28;20024;-86
2023/12/12 11:28:50;;;;;;;20.90;5.50;;;;;;;6.67;95.30;97771.31;5062646;28;20024;-86
2023/12/12 11:31:27;;;;;;;26.52;6.47;;;;;;;6.86;95.12;97805.44;5087352;28;20475;-85